createdAt,value
2018-11-26T00:01:41.674Z,3.90
2018-11-26T00:04:09.829Z,3.90
2018-11-26T00:06:37.992Z,3.90
2018-11-26T00:09:07.295Z,3.90
2018-11-26T00:11:36.715Z,3.90
2018-11-26T00:14:05.185Z,3.90
2018-11-26T00:16:33.332Z,3.90
2018-11-26T00:19:01.533Z,3.90
2018-11-26T00:21:29.668Z,3.90
2018-11-26T00:23:58.920Z,3.80
2018-11-26T00:26:27.059Z,3.90
2018-11-26T00:28:55.191Z,3.90
2018-11-26T00:31:23.381Z,3.90
2018-11-26T00:33:51.527Z,3.90
2018-11-26T00:36:19.726Z,3.90
2018-11-26T00:38:47.892Z,3.80
2018-11-26T00:41:16.079Z,3.90
2018-11-26T00:43:44.196Z,3.80
2018-11-26T00:46:12.377Z,3.80
2018-11-26T00:48:40.562Z,3.80
2018-11-26T00:51:08.699Z,3.90
2018-11-26T00:53:36.840Z,3.80
2018-11-26T00:56:06.263Z,3.80
2018-11-26T00:58:34.434Z,3.80
2018-11-26T01:01:02.604Z,3.80
2018-11-26T01:03:30.760Z,3.80
2018-11-26T01:05:58.887Z,3.80
2018-11-26T01:08:27.047Z,3.80
2018-11-26T01:10:55.223Z,3.80
2018-11-26T01:13:23.392Z,3.70
2018-11-26T01:15:51.555Z,3.70
2018-11-26T01:18:19.709Z,3.70
2018-11-26T01:20:47.894Z,3.70
2018-11-26T01:23:16.072Z,3.60
2018-11-26T01:25:44.466Z,3.60
2018-11-26T01:28:12.664Z,3.50
2018-11-26T01:30:40.807Z,3.50
2018-11-26T01:33:09.803Z,3.50
2018-11-26T01:35:38.007Z,3.50
2018-11-26T01:38:06.169Z,3.50
2018-11-26T01:40:39.683Z,3.50
2018-11-26T01:43:07.815Z,3.40
2018-11-26T01:45:35.975Z,3.50
2018-11-26T01:48:04.130Z,3.40
2018-11-26T01:50:32.313Z,3.40
2018-11-26T01:53:00.482Z,3.40
2018-11-26T01:55:28.660Z,3.40
2018-11-26T01:57:56.856Z,3.30
2018-11-26T02:00:27.076Z,3.30
2018-11-26T02:02:55.318Z,3.30
2018-11-26T02:05:23.468Z,3.30
2018-11-26T02:07:51.607Z,3.30
2018-11-26T02:10:20.396Z,3.30
2018-11-26T02:12:48.546Z,3.30
2018-11-26T02:15:33.454Z,3.30
2018-11-26T02:18:01.588Z,3.30
2018-11-26T02:20:29.753Z,3.30
2018-11-26T02:22:57.888Z,3.30
2018-11-26T02:25:26.046Z,3.30
2018-11-26T02:27:54.213Z,3.30
2018-11-26T02:30:22.349Z,3.30
2018-11-26T02:32:50.527Z,3.20
2018-11-26T02:35:18.690Z,3.20
2018-11-26T02:37:50.077Z,3.20
2018-11-26T02:40:23.887Z,3.20
2018-11-26T02:42:52.050Z,3.20
2018-11-26T02:45:20.284Z,3.10
2018-11-26T02:47:48.446Z,3.10
2018-11-26T02:50:16.635Z,3.20
2018-11-26T02:52:44.772Z,3.20
2018-11-26T02:55:12.981Z,3.10
2018-11-26T02:57:41.143Z,3.10
2018-11-26T03:00:11.264Z,3.10
2018-11-26T03:02:39.595Z,3.10
2018-11-26T03:05:09.159Z,3.10
2018-11-26T03:07:37.292Z,3.10
2018-11-26T03:10:06.568Z,3.10
2018-11-26T03:12:34.707Z,3.10
2018-11-26T03:15:02.872Z,3.00
2018-11-26T03:17:31.015Z,3.00
2018-11-26T03:19:59.177Z,3.00
2018-11-26T03:22:27.372Z,3.00
2018-11-26T03:24:55.508Z,3.00
2018-11-26T03:27:23.663Z,3.00
2018-11-26T03:29:51.815Z,3.00
2018-11-26T03:32:19.976Z,3.00
2018-11-26T03:34:48.149Z,3.00
2018-11-26T03:37:16.343Z,3.00
2018-11-26T03:39:44.520Z,3.00
2018-11-26T03:42:12.672Z,3.00
2018-11-26T03:44:40.867Z,3.00
2018-11-26T03:47:09.023Z,3.00
2018-11-26T03:49:37.197Z,2.90
2018-11-26T03:52:05.726Z,2.90
2018-11-26T03:54:33.880Z,2.90
2018-11-26T03:57:02.036Z,2.80
2018-11-26T03:59:30.198Z,2.80
2018-11-26T04:01:58.359Z,2.80
2018-11-26T04:04:26.498Z,2.80
2018-11-26T04:06:54.646Z,2.80
2018-11-26T04:09:22.813Z,2.80
2018-11-26T04:11:51.010Z,2.70
2018-11-26T04:14:19.193Z,2.70
2018-11-26T04:16:47.375Z,2.70
2018-11-26T04:19:15.525Z,2.70
2018-11-26T04:21:43.692Z,2.70
2018-11-26T04:24:11.861Z,2.70
2018-11-26T04:26:40.012Z,2.60
2018-11-26T04:29:08.240Z,2.70
2018-11-26T04:31:36.444Z,2.70
2018-11-26T04:34:04.613Z,2.60
2018-11-26T04:36:32.791Z,2.60
2018-11-26T04:39:00.963Z,2.60
2018-11-26T04:41:29.133Z,2.50
2018-11-26T04:43:57.366Z,2.50
2018-11-26T04:46:25.472Z,2.50
2018-11-26T04:48:53.645Z,2.40
2018-11-26T04:51:21.860Z,2.40
2018-11-26T04:53:50.067Z,2.40
2018-11-26T04:56:18.314Z,2.40
2018-11-26T04:58:46.524Z,2.30
2018-11-26T05:01:14.763Z,2.30
2018-11-26T05:03:42.995Z,2.30
2018-11-26T05:06:11.179Z,2.30
2018-11-26T05:08:39.351Z,2.30
2018-11-26T05:11:07.524Z,2.20
2018-11-26T05:13:35.688Z,2.20
2018-11-26T05:16:03.852Z,2.20
2018-11-26T05:18:32.089Z,2.20
2018-11-26T05:21:00.385Z,2.20
2018-11-26T05:23:28.700Z,2.20
2018-11-26T05:25:56.956Z,2.20
2018-11-26T05:28:25.144Z,2.20
2018-11-26T05:30:53.368Z,2.20
2018-11-26T05:33:21.676Z,2.20
2018-11-26T05:35:49.936Z,2.20
2018-11-26T05:38:18.204Z,2.20
2018-11-26T05:40:46.466Z,2.10
2018-11-26T05:43:14.622Z,2.20
2018-11-26T05:45:42.849Z,2.10
2018-11-26T05:48:11.073Z,2.20
2018-11-26T05:50:39.285Z,2.10
2018-11-26T05:53:07.679Z,2.10
2018-11-26T05:55:35.874Z,2.00
2018-11-26T05:58:04.069Z,2.00
2018-11-26T06:00:33.829Z,2.00
2018-11-26T06:03:02.060Z,2.00
2018-11-26T06:05:30.327Z,2.00
2018-11-26T06:07:58.551Z,2.00
2018-11-26T06:10:26.799Z,2.00
2018-11-26T06:12:55.098Z,2.00
2018-11-26T06:15:23.368Z,2.00
2018-11-26T06:17:51.753Z,2.00
2018-11-26T06:20:20.076Z,2.10
2018-11-26T06:22:48.394Z,2.10
2018-11-26T06:25:19.345Z,2.10
2018-11-26T06:27:47.820Z,2.00
2018-11-26T06:30:17.267Z,2.00
2018-11-26T06:32:45.463Z,2.00
2018-11-26T06:35:18.695Z,2.00
2018-11-26T06:37:46.977Z,2.00
2018-11-26T06:40:15.197Z,2.00
2018-11-26T06:42:43.457Z,1.90
2018-11-26T06:45:14.241Z,1.90
2018-11-26T06:47:42.529Z,1.90
2018-11-26T06:50:12.906Z,1.90
2018-11-26T06:52:41.150Z,1.90
2018-11-26T06:55:14.384Z,1.90
2018-11-26T06:57:42.626Z,1.90
2018-11-26T07:00:12.840Z,1.90
2018-11-26T07:02:41.041Z,1.90
2018-11-26T07:05:19.393Z,1.80
2018-11-26T07:07:47.758Z,1.80
2018-11-26T07:10:16.583Z,1.70
2018-11-26T07:12:44.807Z,1.80
2018-11-26T07:15:13.969Z,1.70
2018-11-26T07:17:42.263Z,1.80
2018-11-26T07:20:12.722Z,1.70
2018-11-26T07:22:41.003Z,1.70
2018-11-26T07:25:10.572Z,1.80
2018-11-26T07:27:38.945Z,1.80
2018-11-26T07:30:10.604Z,1.80
2018-11-26T07:32:38.970Z,1.80
2018-11-26T07:35:07.800Z,1.80
2018-11-26T07:37:36.086Z,1.80
2018-11-26T07:40:07.363Z,1.80
2018-11-26T07:42:35.596Z,1.90
2018-11-26T07:45:04.443Z,1.90
2018-11-26T07:47:32.774Z,1.90
2018-11-26T07:50:01.041Z,1.90
2018-11-26T07:52:29.276Z,1.90
2018-11-26T07:54:57.559Z,2.00
2018-11-26T07:57:25.827Z,2.00
2018-11-26T07:59:54.063Z,2.00
2018-11-26T08:02:22.279Z,2.10
2018-11-26T08:04:50.525Z,2.10
2018-11-26T08:07:18.749Z,2.10
2018-11-26T08:09:47.005Z,2.20
2018-11-26T08:12:15.303Z,2.30
2018-11-26T08:14:43.526Z,2.40
2018-11-26T08:17:11.752Z,2.40
2018-11-26T08:19:40.047Z,2.50
2018-11-26T08:22:08.376Z,2.60
2018-11-26T08:24:36.673Z,2.60
2018-11-26T08:27:05.343Z,2.70
2018-11-26T08:29:33.669Z,2.70
2018-11-26T08:32:01.992Z,2.80
2018-11-26T08:34:30.271Z,2.90
2018-11-26T08:37:03.833Z,3.00
2018-11-26T08:39:35.993Z,3.00
2018-11-26T08:42:08.572Z,3.20
2018-11-26T08:44:40.947Z,3.30
2018-11-26T08:47:14.517Z,3.30
2018-11-26T08:49:42.584Z,3.30
2018-11-26T08:52:10.748Z,3.40
2018-11-26T08:54:38.891Z,3.50
2018-11-26T08:57:07.078Z,3.50
2018-11-26T08:59:35.196Z,3.60
2018-11-26T09:02:07.583Z,3.60
2018-11-26T09:04:41.931Z,3.70
2018-11-26T09:07:10.071Z,3.80
2018-11-26T09:09:38.200Z,3.90
2018-11-26T09:12:06.410Z,3.90
2018-11-26T09:14:34.542Z,3.90
2018-11-26T09:17:02.720Z,3.90
2018-11-26T09:19:30.909Z,4.00
2018-11-26T09:21:59.114Z,4.10
2018-11-26T09:24:27.284Z,4.20
2018-11-26T09:26:55.449Z,4.30
2018-11-26T09:29:23.675Z,4.30
2018-11-26T09:31:51.847Z,4.40
2018-11-26T09:34:19.972Z,4.30
2018-11-26T09:36:48.113Z,4.40
2018-11-26T09:39:16.260Z,4.40
2018-11-26T09:41:44.411Z,4.30
2018-11-26T09:44:12.566Z,4.30
2018-11-26T09:46:40.720Z,4.30
2018-11-26T09:49:08.877Z,4.30
2018-11-26T09:51:41.910Z,4.30
2018-11-26T09:54:05.364Z,4.30
2018-11-26T09:56:33.547Z,4.30
2018-11-26T09:59:01.781Z,4.20
2018-11-26T10:01:29.944Z,4.20
2018-11-26T10:03:58.076Z,4.30
2018-11-26T10:06:26.215Z,4.30
2018-11-26T10:08:54.732Z,4.30
2018-11-26T10:11:22.912Z,4.30
2018-11-26T10:13:51.304Z,4.40
2018-11-26T10:16:19.451Z,4.40
2018-11-26T10:18:47.601Z,4.40
2018-11-26T10:21:15.760Z,4.40
2018-11-26T10:23:43.955Z,4.40
2018-11-26T10:26:12.111Z,4.40
2018-11-26T10:28:40.262Z,4.40
2018-11-26T10:31:08.393Z,4.30
2018-11-26T10:33:36.534Z,4.40
2018-11-26T10:36:04.688Z,4.40
2018-11-26T10:38:32.846Z,4.50
2018-11-26T10:41:00.976Z,4.40
2018-11-26T10:43:29.138Z,4.30
2018-11-26T10:45:57.328Z,4.30
2018-11-26T10:48:25.464Z,4.30
2018-11-26T10:50:53.609Z,4.30
2018-11-26T10:53:21.744Z,4.30
2018-11-26T10:55:49.885Z,4.30
2018-11-26T10:58:18.023Z,4.30
2018-11-26T11:00:51.436Z,4.30
2018-11-26T11:03:19.606Z,4.30
2018-11-26T11:05:47.741Z,4.30
2018-11-26T11:08:15.891Z,4.30
2018-11-26T11:10:44.047Z,4.30
2018-11-26T11:13:12.197Z,4.30
2018-11-26T11:15:40.335Z,4.40
2018-11-26T11:18:08.527Z,4.50
2018-11-26T11:20:36.730Z,4.50
2018-11-26T11:23:05.043Z,4.50
2018-11-26T11:25:33.186Z,4.60
2018-11-26T11:28:01.332Z,4.60
2018-11-26T11:30:30.412Z,4.60
2018-11-26T11:32:58.575Z,4.60
2018-11-26T11:35:26.742Z,4.60
2018-11-26T11:37:55.269Z,4.60
2018-11-26T11:40:25.530Z,4.70
2018-11-26T11:42:53.731Z,4.70
2018-11-26T11:45:22.630Z,4.70
2018-11-26T11:47:50.853Z,4.80
2018-11-26T11:50:19.921Z,4.80
2018-11-26T11:52:48.468Z,4.70
2018-11-26T11:55:19.605Z,4.80
2018-11-26T11:57:47.743Z,4.80
2018-11-26T12:00:32.351Z,4.80
2018-11-26T12:03:01.723Z,4.80
2018-11-26T12:05:29.877Z,4.80
2018-11-26T12:07:58.038Z,4.80
2018-11-26T12:10:26.231Z,4.90
2018-11-26T12:12:54.377Z,4.80
2018-11-26T12:15:22.553Z,4.80
2018-11-26T12:17:50.705Z,4.80
2018-11-26T12:20:18.861Z,4.80
2018-11-26T12:22:47.046Z,4.90
2018-11-26T12:25:16.238Z,4.90
2018-11-26T12:27:44.417Z,5.00
2018-11-26T12:30:18.605Z,5.00
2018-11-26T12:32:46.783Z,5.00
2018-11-26T12:35:14.937Z,5.00
2018-11-26T12:37:43.127Z,5.10
2018-11-26T12:40:12.522Z,5.20
2018-11-26T12:42:40.672Z,5.30
2018-11-26T12:45:28.940Z,5.40
2018-11-26T12:47:57.298Z,5.50
2018-11-26T12:50:25.459Z,5.40
2018-11-26T12:52:53.630Z,5.50
2018-11-26T12:55:22.568Z,5.50
2018-11-26T12:57:51.297Z,5.60
2018-11-26T13:00:22.452Z,5.60
2018-11-26T13:02:52.293Z,5.60
2018-11-26T13:05:20.543Z,5.70
2018-11-26T13:07:48.733Z,5.70
2018-11-26T13:10:18.090Z,5.80
2018-11-26T13:12:46.929Z,5.80
2018-11-26T13:15:17.511Z,5.90
2018-11-26T13:17:45.724Z,5.90
2018-11-26T13:20:15.853Z,5.90
2018-11-26T13:22:44.071Z,5.90
2018-11-26T13:25:13.334Z,5.90
2018-11-26T13:27:45.680Z,5.90
2018-11-26T13:30:16.995Z,5.90
2018-11-26T13:32:46.486Z,5.90
2018-11-26T13:35:15.395Z,5.90
2018-11-26T13:37:43.596Z,5.80
2018-11-26T13:40:12.932Z,5.90
2018-11-26T13:42:41.172Z,5.90
2018-11-26T13:45:14.890Z,5.80
2018-11-26T13:47:43.212Z,5.80
2018-11-26T13:50:14.116Z,5.90
2018-11-26T13:52:42.425Z,5.80
2018-11-26T13:55:12.334Z,5.80
2018-11-26T13:57:40.494Z,5.80
2018-11-26T14:00:13.778Z,5.80
2018-11-26T14:02:41.943Z,5.80
2018-11-26T14:05:11.258Z,5.70
2018-11-26T14:07:39.426Z,5.70
2018-11-26T14:10:11.452Z,5.70
2018-11-26T14:12:39.834Z,5.70
2018-11-26T14:15:11.505Z,5.70
2018-11-26T14:17:39.717Z,5.60
2018-11-26T14:20:10.832Z,5.60
2018-11-26T14:22:39.198Z,5.70
2018-11-26T14:25:09.225Z,5.60
2018-11-26T14:27:37.394Z,5.60
2018-11-26T14:30:17.677Z,5.60
2018-11-26T14:32:45.861Z,5.60
2018-11-26T14:35:14.033Z,5.60
2018-11-26T14:37:42.344Z,5.60
2018-11-26T14:40:15.259Z,5.60
2018-11-26T14:42:43.438Z,5.60
2018-11-26T14:45:12.751Z,5.50
2018-11-26T14:47:40.973Z,5.50
2018-11-26T14:50:12.391Z,5.50
2018-11-26T14:52:41.050Z,5.40
2018-11-26T14:55:11.372Z,5.40
2018-11-26T14:57:39.569Z,5.40
2018-11-26T15:00:14.393Z,5.40
2018-11-26T15:02:43.585Z,5.30
2018-11-26T15:05:11.052Z,5.30
2018-11-26T15:07:39.243Z,5.30
2018-11-26T15:10:11.691Z,5.30
2018-11-26T15:12:39.841Z,5.20
2018-11-26T15:15:11.398Z,5.20
2018-11-26T15:17:39.978Z,5.20
2018-11-26T15:20:09.961Z,5.20
2018-11-26T15:22:38.223Z,5.10
2018-11-26T15:25:08.409Z,5.10
2018-11-26T15:27:36.530Z,5.10
2018-11-26T15:30:08.950Z,5.10
2018-11-26T15:32:37.077Z,5.10
2018-11-26T15:35:06.210Z,5.20
2018-11-26T15:37:34.333Z,5.10
2018-11-26T15:40:02.445Z,5.10
2018-11-26T15:42:30.708Z,5.00
2018-11-26T15:44:58.817Z,5.00
2018-11-26T15:47:26.959Z,5.00
2018-11-26T15:49:55.104Z,5.00
2018-11-26T15:52:23.230Z,5.00
2018-11-26T15:54:51.383Z,5.00
2018-11-26T15:57:19.521Z,5.00
2018-11-26T15:59:47.668Z,5.10
2018-11-26T16:02:15.897Z,5.10
2018-11-26T16:04:44.037Z,5.10
2018-11-26T16:07:12.180Z,5.10
2018-11-26T16:09:40.343Z,5.10
2018-11-26T16:12:11.280Z,5.00
2018-11-26T16:14:36.621Z,5.10
2018-11-26T16:17:05.613Z,5.00
2018-11-26T16:19:33.737Z,5.00
2018-11-26T16:22:01.914Z,5.00
2018-11-26T16:24:30.093Z,5.00
2018-11-26T16:26:58.278Z,4.90
2018-11-26T16:29:26.431Z,5.00
2018-11-26T16:31:54.567Z,4.90
2018-11-26T16:34:22.735Z,4.90
2018-11-26T16:36:50.903Z,4.90
2018-11-26T16:39:19.071Z,4.90
2018-11-26T16:41:47.217Z,4.90
2018-11-26T16:44:15.363Z,4.90
2018-11-26T16:46:43.489Z,4.90
2018-11-26T16:49:13.625Z,4.80
2018-11-26T16:51:41.922Z,4.90
2018-11-26T16:54:10.077Z,4.90
2018-11-26T16:56:38.298Z,4.80
2018-11-26T16:59:06.730Z,4.80
2018-11-26T17:01:34.853Z,4.80
2018-11-26T17:04:02.969Z,4.80
2018-11-26T17:06:31.109Z,4.80
2018-11-26T17:08:59.309Z,4.80
2018-11-26T17:11:27.442Z,4.80
2018-11-26T17:13:55.629Z,4.70
2018-11-26T17:16:23.842Z,4.70
2018-11-26T17:18:52.028Z,4.70
2018-11-26T17:21:20.199Z,4.80
2018-11-26T17:23:48.326Z,4.70
2018-11-26T17:26:16.485Z,4.70
2018-11-26T17:28:44.617Z,4.70
2018-11-26T17:31:12.758Z,4.70
2018-11-26T17:33:40.917Z,4.70
2018-11-26T17:36:09.060Z,4.70
2018-11-26T17:38:37.293Z,4.70
2018-11-26T17:41:05.778Z,4.70
2018-11-26T17:43:33.939Z,4.60
2018-11-26T17:46:02.079Z,4.60
2018-11-26T17:48:32.306Z,4.60
2018-11-26T17:51:00.454Z,4.60
2018-11-26T17:53:28.572Z,4.60
2018-11-26T17:55:57.038Z,4.60
2018-11-26T17:58:27.303Z,4.50
2018-11-26T18:01:12.770Z,4.50
2018-11-26T18:03:40.876Z,4.50
2018-11-26T18:06:09.001Z,4.50
2018-11-26T18:08:37.142Z,4.40
2018-11-26T18:11:06.509Z,4.40
2018-11-26T18:13:34.633Z,4.40
2018-11-26T18:16:02.769Z,4.40
2018-11-26T18:18:30.897Z,4.40
2018-11-26T18:20:59.042Z,4.40
2018-11-26T18:23:27.205Z,4.40
2018-11-26T18:25:55.360Z,4.40
2018-11-26T18:28:28.585Z,4.40
2018-11-26T18:30:56.717Z,4.40
2018-11-26T18:33:24.863Z,4.40
2018-11-26T18:35:53.058Z,4.30
2018-11-26T18:38:21.194Z,4.40
2018-11-26T18:40:50.980Z,4.40
2018-11-26T18:43:20.232Z,4.30
2018-11-26T18:45:48.422Z,4.30
2018-11-26T18:48:16.601Z,4.30
2018-11-26T18:50:44.756Z,4.30
2018-11-26T18:53:12.884Z,4.30
2018-11-26T18:55:42.585Z,4.30
2018-11-26T18:58:10.740Z,4.30
2018-11-26T19:00:42.894Z,4.20
2018-11-26T19:03:11.022Z,4.20
2018-11-26T19:05:39.271Z,4.20
2018-11-26T19:08:07.713Z,4.20
2018-11-26T19:10:37.070Z,4.20
2018-11-26T19:13:16.437Z,4.20
2018-11-26T19:15:46.121Z,4.20
2018-11-26T19:18:24.466Z,4.20
2018-11-26T19:20:52.780Z,4.20
2018-11-26T19:23:21.065Z,4.20
2018-11-26T19:25:50.737Z,4.10
2018-11-26T19:28:20.457Z,4.10
2018-11-26T19:30:50.986Z,4.10
2018-11-26T19:33:19.117Z,4.10
2018-11-26T19:35:47.250Z,4.10
2018-11-26T19:38:15.398Z,4.00
2018-11-26T19:40:43.534Z,4.00
2018-11-26T19:43:11.702Z,4.00
2018-11-26T19:45:39.867Z,4.00
2018-11-26T19:48:08.636Z,4.00
2018-11-26T19:50:36.936Z,3.90
2018-11-26T19:53:07.097Z,4.00
2018-11-26T19:55:35.293Z,3.90
2018-11-26T19:58:03.476Z,3.90
2018-11-26T20:00:31.620Z,3.90
2018-11-26T20:03:21.492Z,3.90
2018-11-26T20:05:58.951Z,3.90
2018-11-26T20:08:27.140Z,3.90
2018-11-26T20:10:55.309Z,3.90
2018-11-26T20:13:23.442Z,3.90
2018-11-26T20:15:53.131Z,3.90
2018-11-26T20:18:21.260Z,3.90
2018-11-26T20:20:49.413Z,3.90
2018-11-26T20:23:17.769Z,3.90
2018-11-26T20:25:46.219Z,3.90
2018-11-26T20:28:14.109Z,3.90
2018-11-26T20:30:42.257Z,3.90
2018-11-26T20:33:10.433Z,3.80
2018-11-26T20:35:40.670Z,3.80
2018-11-26T20:38:10.469Z,3.80
2018-11-26T20:40:38.660Z,3.90
2018-11-26T20:43:09.869Z,3.80
2018-11-26T20:45:39.216Z,3.80
2018-11-26T20:48:08.279Z,3.80
2018-11-26T20:50:36.507Z,3.80
2018-11-26T20:53:04.657Z,3.80
2018-11-26T20:55:32.800Z,3.80
2018-11-26T20:58:00.959Z,3.80
2018-11-26T21:00:29.313Z,3.80
2018-11-26T21:03:03.980Z,3.80
2018-11-26T21:05:32.137Z,3.80
2018-11-26T21:08:00.254Z,3.80
2018-11-26T21:10:28.384Z,3.80
2018-11-26T21:12:56.563Z,3.80
2018-11-26T21:15:24.696Z,3.90
2018-11-26T21:17:53.929Z,3.90
2018-11-26T21:20:26.491Z,3.90
2018-11-26T21:22:55.202Z,3.90
2018-11-26T21:25:23.389Z,3.90
2018-11-26T21:27:51.568Z,3.90
2018-11-26T21:30:21.784Z,3.90
2018-11-26T21:32:49.925Z,3.90
2018-11-26T21:35:20.185Z,4.00
2018-11-26T21:37:49.577Z,4.00
2018-11-26T21:40:20.680Z,4.00
2018-11-26T21:42:50.404Z,3.90
2018-11-26T21:45:20.130Z,3.90
2018-11-26T21:47:48.290Z,3.90
2018-11-26T21:50:16.458Z,3.90
2018-11-26T21:52:44.850Z,3.90
2018-11-26T21:55:14.121Z,3.80
2018-11-26T21:57:42.372Z,3.80
2018-11-26T22:00:15.250Z,3.70
2018-11-26T22:02:43.390Z,3.70
2018-11-26T22:05:11.729Z,3.70
2018-11-26T22:07:40.894Z,3.60
2018-11-26T22:10:11.613Z,3.60
2018-11-26T22:12:39.765Z,3.60
2018-11-26T22:15:10.727Z,3.70
2018-11-26T22:17:39.262Z,3.70
2018-11-26T22:20:16.765Z,3.70
2018-11-26T22:22:44.900Z,3.70
2018-11-26T22:25:13.054Z,3.60
2018-11-26T22:27:41.236Z,3.60
2018-11-26T22:30:36.756Z,3.60
2018-11-26T22:33:05.069Z,3.60
2018-11-26T22:35:33.217Z,3.60
2018-11-26T22:38:01.386Z,3.60
2018-11-26T22:40:29.583Z,3.60
2018-11-26T22:42:57.762Z,3.60
2018-11-26T22:45:28.461Z,3.60
2018-11-26T22:48:00.022Z,3.60
2018-11-26T22:50:28.209Z,3.70
2018-11-26T22:52:56.396Z,3.70
2018-11-26T22:55:24.564Z,3.70
2018-11-26T22:57:53.821Z,3.70
2018-11-26T23:00:24.753Z,3.70
2018-11-26T23:02:54.557Z,3.70
2018-11-26T23:05:22.739Z,3.70
2018-11-26T23:07:50.921Z,3.70
2018-11-26T23:10:19.102Z,3.70
2018-11-26T23:12:47.277Z,3.80
2018-11-26T23:15:15.939Z,3.80
2018-11-26T23:17:44.843Z,3.80
2018-11-26T23:20:14.992Z,3.80
2018-11-26T23:22:43.207Z,3.80
2018-11-26T23:25:13.745Z,3.90
2018-11-26T23:27:42.009Z,3.90
2018-11-26T23:30:27.111Z,3.80
2018-11-26T23:32:57.322Z,3.80
2018-11-26T23:35:25.570Z,3.80
2018-11-26T23:37:53.786Z,3.90
2018-11-26T23:40:21.973Z,3.90
2018-11-26T23:42:50.138Z,3.90
2018-11-26T23:45:19.489Z,3.90
2018-11-26T23:47:47.664Z,3.90
2018-11-26T23:50:16.318Z,3.90
2018-11-26T23:52:46.939Z,3.80
2018-11-26T23:55:15.928Z,3.80
2018-11-26T23:57:44.102Z,3.90
